Flugplatz Geilenkirchen (ETNG)

Hier findest Du alle Informationen zum Flugplatz Geilenkirchen (ETNG).

Informationen für Piloten zum Flugplatz Geilenkirchen

Hier findest Du alle relevanten Informationen, die Du als Pilot benötigst, um Geilenkirchen anzufliegen.

Flugplatz: Geilenkirchen ICAO-Code: ETNG
Frequenz Turm: 122,100 Mhz GAFOR Gebiet: 31
Frequenz Ground: 122,100 Mhz Mogas: nein
Platzrunde: - Landegebühr: -
Platzhöhe: - Sunrise: 07:07 Uhr UTC
Pisten: 09/27 - 3.050 m x , BIT Sunset: 15:38 Uhr UTC

Mitglieder, die in Geilenkirchen fliegen

Flugwetter am Flugplatz Geilenkirchen

Die METAR Information stammen aus EDLN (43.90 km entfernt).

METAR Code:
2022/11/13 21:20
EDLN 132120Z AUTO VRB01KT 9999 // NCD 02/02 Q1017

Flugschulen am Flugplatz Geilenkirchen

Am Flugplatz Geilenkirchen gibt es leider keine Flugschule.

Benachbarte Flugplätze und Flugschulen

Es gibt 13 weitere Flugplätze in einem Umkreis von 50 km um den Flugplatz Geilenkirchen.

Jetzt anmelden

Passwort vergessen

Umfrage Archiv

Sendet Ihr ADS-B und/oder FLARM?

Ja
84.5 %
Nein
15.5 %
Stimmen: 252 | Diskussion
Anzeige: Roland Aircraft
Statistik Alle Mitglieder

Aktuell sind 52 Besucher online, davon 3 Mitglieder und 49 Gäste.


Mitglieder online:
Mininimbus  Elman  koelblin 

Anzeige: ULPower Aero Engines Anzeige: EasyVFR